sensor_id;sensor_type;location;lat;lon;timestamp;temperature;humidity
16263;DHT22;8239;48.594;8.598;2023-04-15T00:00:21;-0.80;99.90
16263;DHT22;8239;48.594;8.598;2023-04-15T00:02:48;-0.80;99.90
16263;DHT22;8239;48.594;8.598;2023-04-15T00:05:15;-0.80;99.90
16263;DHT22;8239;48.594;8.598;2023-04-15T00:07:42;-0.80;99.90
16263;DHT22;8239;48.594;8.598;2023-04-15T00:10:12;-0.80;99.90
16263;DHT22;8239;48.594;8.598;2023-04-15T00:12:39;-0.90;99.90
16263;DHT22;8239;48.594;8.598;2023-04-15T00:15:08;-0.90;99.90
16263;DHT22;8239;48.594;8.598;2023-04-15T00:17:37;-0.90;99.90
16263;DHT22;8239;48.594;8.598;2023-04-15T00:20:05;-1.00;99.90
16263;DHT22;8239;48.594;8.598;2023-04-15T00:22:32;-1.00;99.90
16263;DHT22;8239;48.594;8.598;2023-04-15T00:25:00;-1.00;99.90
16263;DHT22;8239;48.594;8.598;2023-04-15T00:27:28;-1.00;99.90
16263;DHT22;8239;48.594;8.598;2023-04-15T00:29:56;-1.10;99.90
16263;DHT22;8239;48.594;8.598;2023-04-15T00:32:23;-1.10;99.90
16263;DHT22;8239;48.594;8.598;2023-04-15T00:34:50;-1.10;99.90
16263;DHT22;8239;48.594;8.598;2023-04-15T00:37:17;-1.10;99.90
16263;DHT22;8239;48.594;8.598;2023-04-15T00:39:44;-1.10;99.90
16263;DHT22;8239;48.594;8.598;2023-04-15T00:42:12;-1.20;99.90
16263;DHT22;8239;48.594;8.598;2023-04-15T00:44:41;-1.20;99.90
16263;DHT22;8239;48.594;8.598;2023-04-15T00:47:08;-1.20;99.90
16263;DHT22;8239;48.594;8.598;2023-04-15T00:49:35;-1.20;99.90
16263;DHT22;8239;48.594;8.598;2023-04-15T00:52:02;-1.20;99.90
16263;DHT22;8239;48.594;8.598;2023-04-15T00:54:29;-1.20;99.90
16263;DHT22;8239;48.594;8.598;2023-04-15T00:56:56;-1.20;99.90
16263;DHT22;8239;48.594;8.598;2023-04-15T00:59:24;-1.20;99.90
16263;DHT22;8239;48.594;8.598;2023-04-15T01:01:53;-1.20;99.90
16263;DHT22;8239;48.594;8.598;2023-04-15T01:04:20;-1.30;99.90
16263;DHT22;8239;48.594;8.598;2023-04-15T01:06:47;-1.30;99.90
16263;DHT22;8239;48.594;8.598;2023-04-15T01:09:14;-1.30;99.90
16263;DHT22;8239;48.594;8.598;2023-04-15T01:11:41;-1.30;99.90
16263;DHT22;8239;48.594;8.598;2023-04-15T01:14:08;-1.40;99.90
16263;DHT22;8239;48.594;8.598;2023-04-15T01:16:36;-1.40;99.90
16263;DHT22;8239;48.594;8.598;2023-04-15T01:19:07;-1.40;99.90
16263;DHT22;8239;48.594;8.598;2023-04-15T01:21:36;-1.40;99.90
16263;DHT22;8239;48.594;8.598;2023-04-15T01:24:09;-1.40;99.90
16263;DHT22;8239;48.594;8.598;2023-04-15T01:26:38;-1.30;99.90
16263;DHT22;8239;48.594;8.598;2023-04-15T01:29:05;-1.30;99.90
16263;DHT22;8239;48.594;8.598;2023-04-15T01:31:33;-1.30;99.90
16263;DHT22;8239;48.594;8.598;2023-04-15T01:34:00;-1.30;99.90
16263;DHT22;8239;48.594;8.598;2023-04-15T01:36:27;-1.30;99.90
16263;DHT22;8239;48.594;8.598;2023-04-15T01:38:55;-1.40;99.90
16263;DHT22;8239;48.594;8.598;2023-04-15T01:41:24;-1.40;99.90
16263;DHT22;8239;48.594;8.598;2023-04-15T01:43:54;-1.40;99.90
16263;DHT22;8239;48.594;8.598;2023-04-15T01:46:22;-1.40;99.90
16263;DHT22;8239;48.594;8.598;2023-04-15T01:48:49;-1.40;99.90
16263;DHT22;8239;48.594;8.598;2023-04-15T01:51:16;-1.40;99.90
16263;DHT22;8239;48.594;8.598;2023-04-15T01:53:43;-1.40;99.90
16263;DHT22;8239;48.594;8.598;2023-04-15T01:56:10;-1.40;99.90
16263;DHT22;8239;48.594;8.598;2023-04-15T01:58:37;-1.50;99.90
16263;DHT22;8239;48.594;8.598;2023-04-15T02:01:06;-1.50;99.90
16263;DHT22;8239;48.594;8.598;2023-04-15T02:03:34;-1.50;99.90
16263;DHT22;8239;48.594;8.598;2023-04-15T02:06:02;-1.50;99.90
16263;DHT22;8239;48.594;8.598;2023-04-15T02:08:29;-1.50;99.90
16263;DHT22;8239;48.594;8.598;2023-04-15T02:10:56;-1.50;99.90
16263;DHT22;8239;48.594;8.598;2023-04-15T02:13:23;-1.50;99.90
16263;DHT22;8239;48.594;8.598;2023-04-15T02:15:50;-1.50;99.90
16263;DHT22;8239;48.594;8.598;2023-04-15T02:18:19;-1.50;99.90
16263;DHT22;8239;48.594;8.598;2023-04-15T02:20:46;-1.50;99.90
16263;DHT22;8239;48.594;8.598;2023-04-15T02:23:14;-1.50;99.90
16263;DHT22;8239;48.594;8.598;2023-04-15T02:25:41;-1.60;99.90
16263;DHT22;8239;48.594;8.598;2023-04-15T02:28:08;-1.60;99.90
16263;DHT22;8239;48.594;8.598;2023-04-15T02:30:35;-1.60;99.90
16263;DHT22;8239;48.594;8.598;2023-04-15T02:33:02;-1.70;99.90
16263;DHT22;8239;48.594;8.598;2023-04-15T02:35:31;-1.70;99.90
16263;DHT22;8239;48.594;8.598;2023-04-15T02:37:58;-1.70;99.90
16263;DHT22;8239;48.594;8.598;2023-04-15T02:40:25;-1.70;99.90
16263;DHT22;8239;48.594;8.598;2023-04-15T02:42:52;-1.70;99.90
16263;DHT22;8239;48.594;8.598;2023-04-15T02:45:19;-1.70;99.90
16263;DHT22;8239;48.594;8.598;2023-04-15T02:47:48;-1.70;99.90
16263;DHT22;8239;48.594;8.598;2023-04-15T02:50:15;-1.70;99.90
16263;DHT22;8239;48.594;8.598;2023-04-15T02:52:44;-1.70;99.90
16263;DHT22;8239;48.594;8.598;2023-04-15T02:55:11;-1.70;99.90
16263;DHT22;8239;48.594;8.598;2023-04-15T02:57:38;-1.60;99.90
16263;DHT22;8239;48.594;8.598;2023-04-15T03:00:06;-1.70;99.90
16263;DHT22;8239;48.594;8.598;2023-04-15T03:02:35;-1.60;99.90
16263;DHT22;8239;48.594;8.598;2023-04-15T03:05:02;-1.70;99.90
16263;DHT22;8239;48.594;8.598;2023-04-15T03:07:30;-1.60;99.90
16263;DHT22;8239;48.594;8.598;2023-04-15T03:09:58;-1.60;99.90
16263;DHT22;8239;48.594;8.598;2023-04-15T03:12:25;-1.60;99.90
16263;DHT22;8239;48.594;8.598;2023-04-15T03:14:53;-1.70;99.90
16263;DHT22;8239;48.594;8.598;2023-04-15T03:17:20;-1.70;99.90
16263;DHT22;8239;48.594;8.598;2023-04-15T03:19:47;-1.70;99.90
16263;DHT22;8239;48.594;8.598;2023-04-15T03:22:14;-1.70;99.90
16263;DHT22;8239;48.594;8.598;2023-04-15T03:24:40;-1.70;99.90
16263;DHT22;8239;48.594;8.598;2023-04-15T03:27:09;-1.70;99.90
16263;DHT22;8239;48.594;8.598;2023-04-15T03:29:36;-1.70;99.90
16263;DHT22;8239;48.594;8.598;2023-04-15T03:32:03;-1.70;99.90
16263;DHT22;8239;48.594;8.598;2023-04-15T03:34:30;-1.80;99.90
16263;DHT22;8239;48.594;8.598;2023-04-15T03:36:57;-1.80;99.90
16263;DHT22;8239;48.594;8.598;2023-04-15T03:39:24;-1.80;99.90
16263;DHT22;8239;48.594;8.598;2023-04-15T03:41:51;-1.80;99.90
16263;DHT22;8239;48.594;8.598;2023-04-15T03:44:20;-1.90;99.90
16263;DHT22;8239;48.594;8.598;2023-04-15T03:46:47;-1.90;99.90
16263;DHT22;8239;48.594;8.598;2023-04-15T03:49:14;-1.90;99.90
16263;DHT22;8239;48.594;8.598;2023-04-15T03:51:41;-1.90;99.90
16263;DHT22;8239;48.594;8.598;2023-04-15T03:54:07;-1.90;99.90
16263;DHT22;8239;48.594;8.598;2023-04-15T03:56:35;-1.90;99.90
16263;DHT22;8239;48.594;8.598;2023-04-15T03:59:02;-1.90;99.90
16263;DHT22;8239;48.594;8.598;2023-04-15T04:01:30;-1.90;99.90
16263;DHT22;8239;48.594;8.598;2023-04-15T04:03:57;-1.90;99.90
16263;DHT22;8239;48.594;8.598;2023-04-15T04:06:24;-1.90;99.90
16263;DHT22;8239;48.594;8.598;2023-04-15T04:08:52;-1.90;99.90
16263;DHT22;8239;48.594;8.598;2023-04-15T04:11:19;-1.90;99.90
16263;DHT22;8239;48.594;8.598;2023-04-15T04:13:46;-1.90;99.90
16263;DHT22;8239;48.594;8.598;2023-04-15T04:16:13;-2.00;99.90
16263;DHT22;8239;48.594;8.598;2023-04-15T04:18:41;-2.00;99.90
16263;DHT22;8239;48.594;8.598;2023-04-15T04:21:08;-2.00;99.90
16263;DHT22;8239;48.594;8.598;2023-04-15T04:23:35;-1.90;99.90
16263;DHT22;8239;48.594;8.598;2023-04-15T04:26:02;-1.90;99.90
16263;DHT22;8239;48.594;8.598;2023-04-15T04:28:29;-1.90;99.90
16263;DHT22;8239;48.594;8.598;2023-04-15T04:30:56;-1.90;99.90
16263;DHT22;8239;48.594;8.598;2023-04-15T04:33:23;-1.90;99.90
16263;DHT22;8239;48.594;8.598;2023-04-15T04:35:51;-1.90;99.90
16263;DHT22;8239;48.594;8.598;2023-04-15T04:38:18;-1.80;99.90
16263;DHT22;8239;48.594;8.598;2023-04-15T04:40:45;-1.80;99.90
16263;DHT22;8239;48.594;8.598;2023-04-15T04:43:12;-1.80;99.90
16263;DHT22;8239;48.594;8.598;2023-04-15T04:45:40;-1.80;99.90
16263;DHT22;8239;48.594;8.598;2023-04-15T04:48:07;-1.70;99.90
16263;DHT22;8239;48.594;8.598;2023-04-15T04:50:35;-1.70;99.90
16263;DHT22;8239;48.594;8.598;2023-04-15T04:53:03;-1.70;99.90
16263;DHT22;8239;48.594;8.598;2023-04-15T04:55:30;-1.60;99.90
16263;DHT22;8239;48.594;8.598;2023-04-15T04:57:57;-1.60;99.90
16263;DHT22;8239;48.594;8.598;2023-04-15T05:00:24;-1.50;99.90
16263;DHT22;8239;48.594;8.598;2023-04-15T05:02:51;-1.40;99.90
16263;DHT22;8239;48.594;8.598;2023-04-15T05:05:18;-1.40;99.90
16263;DHT22;8239;48.594;8.598;2023-04-15T05:07:45;-1.30;99.90
16263;DHT22;8239;48.594;8.598;2023-04-15T05:10:15;-1.20;99.90
16263;DHT22;8239;48.594;8.598;2023-04-15T05:12:42;-1.10;99.90
16263;DHT22;8239;48.594;8.598;2023-04-15T05:15:10;-1.00;99.90
16263;DHT22;8239;48.594;8.598;2023-04-15T05:17:37;-0.90;99.90
16263;DHT22;8239;48.594;8.598;2023-04-15T05:20:05;-0.80;99.90
16263;DHT22;8239;48.594;8.598;2023-04-15T05:22:32;-0.60;99.90
16263;DHT22;8239;48.594;8.598;2023-04-15T05:24:59;-0.40;99.90
16263;DHT22;8239;48.594;8.598;2023-04-15T05:27:27;-0.30;99.90
16263;DHT22;8239;48.594;8.598;2023-04-15T05:29:54;-0.10;99.90
16263;DHT22;8239;48.594;8.598;2023-04-15T05:32:21;0.00;99.90
16263;DHT22;8239;48.594;8.598;2023-04-15T05:34:48;0.20;99.90
16263;DHT22;8239;48.594;8.598;2023-04-15T05:37:15;0.40;99.90
16263;DHT22;8239;48.594;8.598;2023-04-15T05:39:45;0.60;99.90
16263;DHT22;8239;48.594;8.598;2023-04-15T05:42:12;0.80;99.90
16263;DHT22;8239;48.594;8.598;2023-04-15T05:44:41;0.90;99.90
16263;DHT22;8239;48.594;8.598;2023-04-15T05:47:08;1.10;99.90
16263;DHT22;8239;48.594;8.598;2023-04-15T05:49:35;1.20;99.90
16263;DHT22;8239;48.594;8.598;2023-04-15T05:52:02;1.40;99.90
16263;DHT22;8239;48.594;8.598;2023-04-15T05:54:29;1.50;99.90
16263;DHT22;8239;48.594;8.598;2023-04-15T05:56:56;1.60;99.90
16263;DHT22;8239;48.594;8.598;2023-04-15T05:59:23;1.70;99.90
16263;DHT22;8239;48.594;8.598;2023-04-15T06:01:53;1.90;99.90
16263;DHT22;8239;48.594;8.598;2023-04-15T06:04:19;2.00;99.90
16263;DHT22;8239;48.594;8.598;2023-04-15T06:06:47;2.20;99.90
16263;DHT22;8239;48.594;8.598;2023-04-15T06:09:14;2.30;99.90
16263;DHT22;8239;48.594;8.598;2023-04-15T06:11:41;2.40;99.90
16263;DHT22;8239;48.594;8.598;2023-04-15T06:14:08;2.50;99.90
16263;DHT22;8239;48.594;8.598;2023-04-15T06:16:35;2.50;99.90
16263;DHT22;8239;48.594;8.598;2023-04-15T06:19:03;2.60;99.90
16263;DHT22;8239;48.594;8.598;2023-04-15T06:21:30;2.70;99.90
16263;DHT22;8239;48.594;8.598;2023-04-15T06:23:58;3.10;99.90
16263;DHT22;8239;48.594;8.598;2023-04-15T06:26:26;3.70;99.90
16263;DHT22;8239;48.594;8.598;2023-04-15T06:28:53;4.60;99.90
16263;DHT22;8239;48.594;8.598;2023-04-15T06:31:21;5.70;99.90
16263;DHT22;8239;48.594;8.598;2023-04-15T06:33:48;6.90;99.90
16263;DHT22;8239;48.594;8.598;2023-04-15T06:36:16;8.10;99.90
16263;DHT22;8239;48.594;8.598;2023-04-15T06:38:44;9.40;99.90
16263;DHT22;8239;48.594;8.598;2023-04-15T06:41:11;10.60;99.90
16263;DHT22;8239;48.594;8.598;2023-04-15T06:43:38;11.70;99.90
16263;DHT22;8239;48.594;8.598;2023-04-15T06:46:05;12.90;99.90
16263;DHT22;8239;48.594;8.598;2023-04-15T06:48:32;14.00;96.10
16263;DHT22;8239;48.594;8.598;2023-04-15T06:50:59;14.90;92.70
16263;DHT22;8239;48.594;8.598;2023-04-15T06:53:27;15.50;85.40
16263;DHT22;8239;48.594;8.598;2023-04-15T06:55:55;15.90;79.10
16263;DHT22;8239;48.594;8.598;2023-04-15T06:58:22;16.00;75.50
16263;DHT22;8239;48.594;8.598;2023-04-15T07:00:49;16.00;72.90
16263;DHT22;8239;48.594;8.598;2023-04-15T07:03:16;16.10;70.30
16263;DHT22;8239;48.594;8.598;2023-04-15T07:05:43;16.20;69.80
16263;DHT22;8239;48.594;8.598;2023-04-15T07:08:10;16.50;67.30
16263;DHT22;8239;48.594;8.598;2023-04-15T07:10:40;16.70;64.80
16263;DHT22;8239;48.594;8.598;2023-04-15T07:13:07;16.70;62.70
16263;DHT22;8239;48.594;8.598;2023-04-15T07:15:34;16.50;61.00
16263;DHT22;8239;48.594;8.598;2023-04-15T07:18:01;16.10;60.00
16263;DHT22;8239;48.594;8.598;2023-04-15T07:20:28;15.70;59.90
16263;DHT22;8239;48.594;8.598;2023-04-15T07:22:55;15.30;60.80
16263;DHT22;8239;48.594;8.598;2023-04-15T07:25:22;14.80;61.00
16263;DHT22;8239;48.594;8.598;2023-04-15T07:27:52;14.40;61.60
16263;DHT22;8239;48.594;8.598;2023-04-15T07:30:19;14.00;62.30
16263;DHT22;8239;48.594;8.598;2023-04-15T07:32:46;13.50;62.50
16263;DHT22;8239;48.594;8.598;2023-04-15T07:35:13;13.10;63.30
16263;DHT22;8239;48.594;8.598;2023-04-15T07:37:40;12.90;63.60
16263;DHT22;8239;48.594;8.598;2023-04-15T07:40:08;12.80;64.30
16263;DHT22;8239;48.594;8.598;2023-04-15T07:42:36;12.80;65.20
16263;DHT22;8239;48.594;8.598;2023-04-15T07:45:05;12.80;65.00
16263;DHT22;8239;48.594;8.598;2023-04-15T07:47:33;12.80;65.00
16263;DHT22;8239;48.594;8.598;2023-04-15T07:50:00;12.80;65.30
16263;DHT22;8239;48.594;8.598;2023-04-15T07:52:27;13.00;65.70
16263;DHT22;8239;48.594;8.598;2023-04-15T07:54:54;13.20;68.00
16263;DHT22;8239;48.594;8.598;2023-04-15T07:57:21;13.60;69.20
16263;DHT22;8239;48.594;8.598;2023-04-15T07:59:48;13.90;64.80
16263;DHT22;8239;48.594;8.598;2023-04-15T08:02:17;14.00;63.20
16263;DHT22;8239;48.594;8.598;2023-04-15T08:04:44;14.10;62.80
16263;DHT22;8239;48.594;8.598;2023-04-15T08:07:11;14.20;62.10
16263;DHT22;8239;48.594;8.598;2023-04-15T08:09:38;14.30;62.40
16263;DHT22;8239;48.594;8.598;2023-04-15T08:12:05;14.30;61.10
16263;DHT22;8239;48.594;8.598;2023-04-15T08:14:34;14.30;60.60
16263;DHT22;8239;48.594;8.598;2023-04-15T08:17:01;14.30;59.90
16263;DHT22;8239;48.594;8.598;2023-04-15T08:19:30;14.50;60.60
16263;DHT22;8239;48.594;8.598;2023-04-15T08:21:57;14.70;60.30
16263;DHT22;8239;48.594;8.598;2023-04-15T08:24:24;14.60;59.50
16263;DHT22;8239;48.594;8.598;2023-04-15T08:26:51;14.60;59.60
16263;DHT22;8239;48.594;8.598;2023-04-15T08:29:19;14.50;59.30
16263;DHT22;8239;48.594;8.598;2023-04-15T08:31:46;14.50;59.50
16263;DHT22;8239;48.594;8.598;2023-04-15T08:34:13;14.40;59.00
16263;DHT22;8239;48.594;8.598;2023-04-15T08:36:42;14.20;59.10
16263;DHT22;8239;48.594;8.598;2023-04-15T08:39:09;14.20;59.70
16263;DHT22;8239;48.594;8.598;2023-04-15T08:41:40;14.20;58.90
16263;DHT22;8239;48.594;8.598;2023-04-15T08:44:12;14.20;59.00
16263;DHT22;8239;48.594;8.598;2023-04-15T08:46:40;14.30;58.80
16263;DHT22;8239;48.594;8.598;2023-04-15T08:49:11;14.40;58.30
16263;DHT22;8239;48.594;8.598;2023-04-15T08:51:39;14.60;57.80
16263;DHT22;8239;48.594;8.598;2023-04-15T08:54:08;14.90;58.00
16263;DHT22;8239;48.594;8.598;2023-04-15T08:56:37;15.10;57.90
16263;DHT22;8239;48.594;8.598;2023-04-15T08:59:06;15.50;58.10
16263;DHT22;8239;48.594;8.598;2023-04-15T09:01:33;16.10;58.30
16263;DHT22;8239;48.594;8.598;2023-04-15T09:04:02;16.90;57.20
16263;DHT22;8239;48.594;8.598;2023-04-15T09:06:34;17.60;55.90
16263;DHT22;8239;48.594;8.598;2023-04-15T09:09:01;18.50;53.60
16263;DHT22;8239;48.594;8.598;2023-04-15T09:11:30;19.10;50.10
16263;DHT22;8239;48.594;8.598;2023-04-15T09:13:57;19.70;47.80
16263;DHT22;8239;48.594;8.598;2023-04-15T09:16:24;20.10;46.00
16263;DHT22;8239;48.594;8.598;2023-04-15T09:18:52;20.00;43.00
16263;DHT22;8239;48.594;8.598;2023-04-15T09:21:19;20.00;43.70
16263;DHT22;8239;48.594;8.598;2023-04-15T09:23:55;20.00;44.60
16263;DHT22;8239;48.594;8.598;2023-04-15T09:26:32;20.30;44.10
16263;DHT22;8239;48.594;8.598;2023-04-15T09:29:04;20.40;42.30
16263;DHT22;8239;48.594;8.598;2023-04-15T09:31:35;20.40;41.40
16263;DHT22;8239;48.594;8.598;2023-04-15T09:34:02;19.80;40.60
16263;DHT22;8239;48.594;8.598;2023-04-15T09:36:37;19.50;41.30
16263;DHT22;8239;48.594;8.598;2023-04-15T09:39:07;19.30;41.50
16263;DHT22;8239;48.594;8.598;2023-04-15T09:41:35;19.00;40.60
16263;DHT22;8239;48.594;8.598;2023-04-15T09:44:03;18.70;40.90
16263;DHT22;8239;48.594;8.598;2023-04-15T09:46:43;18.50;39.40
16263;DHT22;8239;48.594;8.598;2023-04-15T09:49:11;18.20;40.20
16263;DHT22;8239;48.594;8.598;2023-04-15T09:51:38;17.80;40.00
16263;DHT22;8239;48.594;8.598;2023-04-15T09:54:05;17.80;40.70
16263;DHT22;8239;48.594;8.598;2023-04-15T09:56:36;17.70;40.10
16263;DHT22;8239;48.594;8.598;2023-04-15T09:59:06;17.60;40.50
16263;DHT22;8239;48.594;8.598;2023-04-15T10:01:35;17.50;40.60
16263;DHT22;8239;48.594;8.598;2023-04-15T10:04:03;17.30;40.80
16263;DHT22;8239;48.594;8.598;2023-04-15T10:06:30;17.30;41.90
16263;DHT22;8239;48.594;8.598;2023-04-15T10:08:58;17.20;41.70
16263;DHT22;8239;48.594;8.598;2023-04-15T10:11:28;17.00;41.40
16263;DHT22;8239;48.594;8.598;2023-04-15T10:13:56;16.90;42.30
16263;DHT22;8239;48.594;8.598;2023-04-15T10:16:26;16.90;43.20
16263;DHT22;8239;48.594;8.598;2023-04-15T10:18:54;17.00;43.00
16263;DHT22;8239;48.594;8.598;2023-04-15T10:21:22;17.00;42.70
16263;DHT22;8239;48.594;8.598;2023-04-15T10:23:49;16.80;44.90
16263;DHT22;8239;48.594;8.598;2023-04-15T10:26:17;16.60;45.00
16263;DHT22;8239;48.594;8.598;2023-04-15T10:28:45;16.60;45.90
16263;DHT22;8239;48.594;8.598;2023-04-15T10:31:15;16.60;46.50
16263;DHT22;8239;48.594;8.598;2023-04-15T10:33:43;16.70;46.10
16263;DHT22;8239;48.594;8.598;2023-04-15T10:36:12;16.90;45.00
16263;DHT22;8239;48.594;8.598;2023-04-15T10:38:40;17.00;40.90
16263;DHT22;8239;48.594;8.598;2023-04-15T10:41:15;17.30;40.60
16263;DHT22;8239;48.594;8.598;2023-04-15T10:43:49;17.80;41.20
16263;DHT22;8239;48.594;8.598;2023-04-15T10:46:34;18.40;43.10
16263;DHT22;8239;48.594;8.598;2023-04-15T10:49:06;19.00;43.00
16263;DHT22;8239;48.594;8.598;2023-04-15T10:51:37;19.40;41.00
16263;DHT22;8239;48.594;8.598;2023-04-15T10:54:11;19.80;40.70
16263;DHT22;8239;48.594;8.598;2023-04-15T10:56:41;20.00;39.00
16263;DHT22;8239;48.594;8.598;2023-04-15T10:59:08;20.20;37.80
16263;DHT22;8239;48.594;8.598;2023-04-15T11:01:53;20.60;38.20
16263;DHT22;8239;48.594;8.598;2023-04-15T11:04:54;20.90;37.60
16263;DHT22;8239;48.594;8.598;2023-04-15T11:07:39;20.90;35.50
16263;DHT22;8239;48.594;8.598;2023-04-15T11:13:20;21.00;34.40
16263;DHT22;8239;48.594;8.598;2023-04-15T11:15:48;21.30;34.70
16263;DHT22;8239;48.594;8.598;2023-04-15T11:18:19;21.60;35.00
16263;DHT22;8239;48.594;8.598;2023-04-15T11:20:48;21.80;34.50
16263;DHT22;8239;48.594;8.598;2023-04-15T11:23:17;21.80;33.40
16263;DHT22;8239;48.594;8.598;2023-04-15T11:25:44;21.70;33.40
16263;DHT22;8239;48.594;8.598;2023-04-15T11:28:12;21.70;33.40
16263;DHT22;8239;48.594;8.598;2023-04-15T11:30:39;21.80;34.00
16263;DHT22;8239;48.594;8.598;2023-04-15T11:33:08;21.90;32.70
16263;DHT22;8239;48.594;8.598;2023-04-15T11:35:39;21.80;31.50
16263;DHT22;8239;48.594;8.598;2023-04-15T11:38:08;21.70;32.50
16263;DHT22;8239;48.594;8.598;2023-04-15T11:40:36;21.60;32.40
16263;DHT22;8239;48.594;8.598;2023-04-15T11:43:06;21.70;33.60
16263;DHT22;8239;48.594;8.598;2023-04-15T11:45:34;21.90;34.70
16263;DHT22;8239;48.594;8.598;2023-04-15T11:48:06;21.90;35.10
16263;DHT22;8239;48.594;8.598;2023-04-15T11:50:33;21.80;35.20
16263;DHT22;8239;48.594;8.598;2023-04-15T11:53:03;21.70;35.70
16263;DHT22;8239;48.594;8.598;2023-04-15T11:55:30;21.50;35.90
16263;DHT22;8239;48.594;8.598;2023-04-15T11:58:08;21.20;35.40
16263;DHT22;8239;48.594;8.598;2023-04-15T12:00:37;20.90;35.80
16263;DHT22;8239;48.594;8.598;2023-04-15T12:03:11;20.70;36.10
16263;DHT22;8239;48.594;8.598;2023-04-15T12:06:03;20.60;36.20
16263;DHT22;8239;48.594;8.598;2023-04-15T12:08:52;20.40;35.80
16263;DHT22;8239;48.594;8.598;2023-04-15T12:11:33;20.20;36.40
16263;DHT22;8239;48.594;8.598;2023-04-15T12:14:07;20.20;37.30
16263;DHT22;8239;48.594;8.598;2023-04-15T12:16:36;20.10;36.50
16263;DHT22;8239;48.594;8.598;2023-04-15T12:19:05;20.40;37.40
16263;DHT22;8239;48.594;8.598;2023-04-15T12:21:34;20.80;37.10
16263;DHT22;8239;48.594;8.598;2023-04-15T12:24:04;21.10;36.50
16263;DHT22;8239;48.594;8.598;2023-04-15T12:26:34;21.50;36.30
16263;DHT22;8239;48.594;8.598;2023-04-15T12:29:02;21.80;35.70
16263;DHT22;8239;48.594;8.598;2023-04-15T12:31:30;22.00;35.40
16263;DHT22;8239;48.594;8.598;2023-04-15T12:33:58;22.20;35.30
16263;DHT22;8239;48.594;8.598;2023-04-15T12:36:26;22.30;34.70
16263;DHT22;8239;48.594;8.598;2023-04-15T12:38:54;22.10;34.50
16263;DHT22;8239;48.594;8.598;2023-04-15T12:41:23;21.70;34.30
16263;DHT22;8239;48.594;8.598;2023-04-15T12:43:50;21.30;34.70
16263;DHT22;8239;48.594;8.598;2023-04-15T12:46:18;20.80;34.40
16263;DHT22;8239;48.594;8.598;2023-04-15T12:48:45;20.30;35.80
16263;DHT22;8239;48.594;8.598;2023-04-15T12:51:12;19.80;36.10
16263;DHT22;8239;48.594;8.598;2023-04-15T12:53:39;19.40;37.20
16263;DHT22;8239;48.594;8.598;2023-04-15T12:56:06;19.10;37.60
16263;DHT22;8239;48.594;8.598;2023-04-15T12:58:35;18.80;38.00
16263;DHT22;8239;48.594;8.598;2023-04-15T13:01:02;18.70;39.00
16263;DHT22;8239;48.594;8.598;2023-04-15T13:03:29;18.70;39.50
16263;DHT22;8239;48.594;8.598;2023-04-15T13:05:56;18.70;39.50
16263;DHT22;8239;48.594;8.598;2023-04-15T13:08:23;18.80;39.70
16263;DHT22;8239;48.594;8.598;2023-04-15T13:10:50;19.00;40.60
16263;DHT22;8239;48.594;8.598;2023-04-15T13:13:18;19.40;41.00
16263;DHT22;8239;48.594;8.598;2023-04-15T13:15:46;19.50;41.50
16263;DHT22;8239;48.594;8.598;2023-04-15T13:18:13;20.10;42.30
16263;DHT22;8239;48.594;8.598;2023-04-15T13:20:42;20.60;41.00
16263;DHT22;8239;48.594;8.598;2023-04-15T13:23:09;20.50;39.30
16263;DHT22;8239;48.594;8.598;2023-04-15T13:25:39;19.90;38.90
16263;DHT22;8239;48.594;8.598;2023-04-15T13:28:06;19.20;39.10
16263;DHT22;8239;48.594;8.598;2023-04-15T13:30:33;18.40;40.40
16263;DHT22;8239;48.594;8.598;2023-04-15T13:33:01;17.70;40.80
16263;DHT22;8239;48.594;8.598;2023-04-15T13:35:28;16.90;42.30
16263;DHT22;8239;48.594;8.598;2023-04-15T13:37:55;16.30;43.60
16263;DHT22;8239;48.594;8.598;2023-04-15T13:40:22;15.90;45.10
16263;DHT22;8239;48.594;8.598;2023-04-15T13:42:50;15.60;46.50
16263;DHT22;8239;48.594;8.598;2023-04-15T13:45:17;15.60;47.30
16263;DHT22;8239;48.594;8.598;2023-04-15T13:47:44;15.70;47.00
16263;DHT22;8239;48.594;8.598;2023-04-15T13:50:13;15.90;46.10
16263;DHT22;8239;48.594;8.598;2023-04-15T13:52:40;16.30;45.80
16263;DHT22;8239;48.594;8.598;2023-04-15T13:55:08;16.80;45.90
16263;DHT22;8239;48.594;8.598;2023-04-15T13:57:35;17.50;44.70
16263;DHT22;8239;48.594;8.598;2023-04-15T14:00:03;18.20;43.20
16263;DHT22;8239;48.594;8.598;2023-04-15T14:02:30;18.50;42.70
16263;DHT22;8239;48.594;8.598;2023-04-15T14:04:57;18.60;42.40
16263;DHT22;8239;48.594;8.598;2023-04-15T14:07:27;18.40;41.20
16263;DHT22;8239;48.594;8.598;2023-04-15T14:09:57;17.90;40.00
16263;DHT22;8239;48.594;8.598;2023-04-15T14:12:24;17.50;40.50
16263;DHT22;8239;48.594;8.598;2023-04-15T14:14:51;17.00;41.40
16263;DHT22;8239;48.594;8.598;2023-04-15T14:17:18;16.60;41.70
16263;DHT22;8239;48.594;8.598;2023-04-15T14:19:46;16.20;41.70
16263;DHT22;8239;48.594;8.598;2023-04-15T14:22:13;15.70;41.40
16263;DHT22;8239;48.594;8.598;2023-04-15T14:24:42;15.30;41.70
16263;DHT22;8239;48.594;8.598;2023-04-15T14:27:09;14.90;42.60
16263;DHT22;8239;48.594;8.598;2023-04-15T14:29:37;14.60;44.30
16263;DHT22;8239;48.594;8.598;2023-04-15T14:32:04;14.50;44.80
16263;DHT22;8239;48.594;8.598;2023-04-15T14:34:31;14.30;43.90
16263;DHT22;8239;48.594;8.598;2023-04-15T14:36:59;14.20;45.40
16263;DHT22;8239;48.594;8.598;2023-04-15T14:39:26;14.00;45.00
16263;DHT22;8239;48.594;8.598;2023-04-15T14:41:54;13.90;45.60
16263;DHT22;8239;48.594;8.598;2023-04-15T14:44:21;13.90;45.90
16263;DHT22;8239;48.594;8.598;2023-04-15T14:46:48;13.80;46.10
16263;DHT22;8239;48.594;8.598;2023-04-15T14:49:16;13.80;46.40
16263;DHT22;8239;48.594;8.598;2023-04-15T14:51:44;13.80;46.50
16263;DHT22;8239;48.594;8.598;2023-04-15T14:54:11;13.80;47.10
16263;DHT22;8239;48.594;8.598;2023-04-15T14:56:39;13.80;47.40
16263;DHT22;8239;48.594;8.598;2023-04-15T14:59:07;13.80;47.90
16263;DHT22;8239;48.594;8.598;2023-04-15T15:01:34;13.70;48.00
16263;DHT22;8239;48.594;8.598;2023-04-15T15:04:01;13.70;47.70
16263;DHT22;8239;48.594;8.598;2023-04-15T15:06:29;13.60;48.00
16263;DHT22;8239;48.594;8.598;2023-04-15T15:08:56;13.40;48.40
16263;DHT22;8239;48.594;8.598;2023-04-15T15:11:23;13.20;48.80
16263;DHT22;8239;48.594;8.598;2023-04-15T15:13:52;13.00;48.90
16263;DHT22;8239;48.594;8.598;2023-04-15T15:16:20;12.80;49.10
16263;DHT22;8239;48.594;8.598;2023-04-15T15:18:48;12.50;49.40
16263;DHT22;8239;48.594;8.598;2023-04-15T15:21:16;12.20;49.70
16263;DHT22;8239;48.594;8.598;2023-04-15T15:23:43;12.00;50.10
16263;DHT22;8239;48.594;8.598;2023-04-15T15:26:10;11.80;50.90
16263;DHT22;8239;48.594;8.598;2023-04-15T15:28:37;11.60;51.90
16263;DHT22;8239;48.594;8.598;2023-04-15T15:31:05;11.40;52.80
16263;DHT22;8239;48.594;8.598;2023-04-15T15:33:33;11.30;53.10
16263;DHT22;8239;48.594;8.598;2023-04-15T15:36:00;11.20;54.00
16263;DHT22;8239;48.594;8.598;2023-04-15T15:38:27;11.10;54.70
16263;DHT22;8239;48.594;8.598;2023-04-15T15:40:56;11.10;55.20
16263;DHT22;8239;48.594;8.598;2023-04-15T15:43:23;11.10;56.10
16263;DHT22;8239;48.594;8.598;2023-04-15T15:45:50;11.20;57.10
16263;DHT22;8239;48.594;8.598;2023-04-15T15:48:20;11.40;57.60
16263;DHT22;8239;48.594;8.598;2023-04-15T15:50:51;11.60;56.90
16263;DHT22;8239;48.594;8.598;2023-04-15T15:53:29;11.70;57.00
16263;DHT22;8239;48.594;8.598;2023-04-15T15:55:56;11.80;56.20